Time;durP1;ratioP1;P1;durP2;ratioP2;P2;SDS_P1;SDS_P2;PMS_P1;PMS_P2;Temp;Humidity;BMP_temperature;BMP_pressure;BME280_temperature;BME280_humidity;BME280_pressure;Samples;Min_cycle;Max_cycle;Signal;HPM_P1;HPM_P2
2022/05/07 00:01:55;;;;;;;10.15;2.83;;;;;;;11.98;62.94;102420.47;5113127;28;20035;-72
2022/05/07 00:04:20;;;;;;;8.02;2.38;;;;;;;11.92;63.20;102420.88;5095313;28;20427;-72
2022/05/07 00:06:46;;;;;;;8.77;2.95;;;;;;;11.87;63.83;102420.38;5095290;28;20487;-72
2022/05/07 00:09:11;;;;;;;9.02;2.63;;;;;;;11.80;64.17;102421.75;5116957;28;20118;-73
2022/05/07 00:11:36;;;;;;;9.95;3.05;;;;;;;11.74;65.50;102416.84;5099515;28;20119;-72
2022/05/07 00:14:02;;;;;;;8.75;2.63;;;;;;;11.68;65.89;102411.97;5116938;28;20039;-72
2022/05/07 00:19:11;;;;;;;12.23;3.25;;;;;;;11.59;67.48;102395.63;5117109;28;20116;-72
2022/05/07 00:21:36;;;;;;;6.93;2.95;;;;;;;11.57;68.33;102394.03;5117356;28;20465;-72
2022/05/07 00:24:03;;;;;;;8.68;3.42;;;;;;;11.55;68.40;102398.63;5117343;28;20036;-72
2022/05/07 00:26:29;;;;;;;10.93;4.10;;;;;;;11.54;68.51;102405.78;5116930;28;20067;-72
2022/05/07 00:28:54;;;;;;;12.60;3.90;;;;;;;11.54;69.02;102399.59;5098751;28;20052;-72
2022/05/07 00:31:20;;;;;;;6.30;3.25;;;;;;;11.52;69.19;102398.84;5117002;28;20125;-72
2022/05/07 00:33:45;;;;;;;10.70;3.72;;;;;;;11.49;69.32;102396.41;5117140;28;20038;-71
2022/05/07 00:36:11;;;;;;;11.55;4.13;;;;;;;11.47;69.62;102397.34;5116696;28;20028;-72
2022/05/07 00:38:36;;;;;;;9.18;4.03;;;;;;;11.48;70.82;102398.22;5117083;28;20055;-72
2022/05/07 00:41:01;;;;;;;12.63;4.13;;;;;;;11.47;71.65;102400.00;5098459;28;20478;-71
2022/05/07 00:43:35;;;;;;;13.50;4.53;;;;;;;11.45;72.01;102403.78;5116674;28;20359;-72
2022/05/07 00:46:01;;;;;;;11.98;4.38;;;;;;;11.44;72.60;102405.56;5116720;28;20063;-71
2022/05/07 00:48:26;;;;;;;10.13;4.30;;;;;;;11.42;73.29;102401.28;5097950;28;20080;-71
2022/05/07 00:53:37;;;;;;;13.35;4.35;;;;;;;11.37;73.96;102398.94;5101399;28;20054;-72
2022/05/07 00:56:03;;;;;;;18.02;5.22;;;;;;;11.34;74.76;102393.81;5098056;28;20392;-71
2022/05/07 00:58:29;;;;;;;10.52;4.53;;;;;;;11.30;75.20;102387.03;5116285;28;20127;-71
2022/05/07 01:00:54;;;;;;;16.20;5.32;;;;;;;11.27;76.16;102389.88;5116541;28;20043;-71
2022/05/07 01:03:20;;;;;;;13.38;5.68;;;;;;;11.22;76.55;102392.03;5116226;28;20035;-72
2022/05/07 01:05:45;;;;;;;23.02;6.07;;;;;;;11.21;77.00;102393.84;5097815;28;20123;-71
2022/05/07 01:08:12;;;;;;;23.58;6.28;;;;;;;11.19;77.82;102390.41;5116621;28;20032;-72
2022/05/07 01:10:39;;;;;;;18.58;6.05;;;;;;;11.17;78.63;102389.66;5116217;28;20057;-71
2022/05/07 01:13:04;;;;;;;19.52;7.28;;;;;;;11.16;79.17;102385.28;5116357;28;20032;-71
2022/05/07 01:15:30;;;;;;;18.92;6.85;;;;;;;11.17;79.63;102386.16;5097832;28;20027;-71
2022/05/07 01:17:56;;;;;;;18.75;6.53;;;;;;;11.18;80.20;102380.72;5115578;28;20464;-70
2022/05/07 01:20:21;;;;;;;23.63;7.10;;;;;;;11.18;80.39;102390.50;5115887;28;20152;-71
2022/05/07 01:22:47;;;;;;;18.35;6.82;;;;;;;11.18;80.77;102394.06;5097767;28;20034;-71
2022/05/07 01:25:13;;;;;;;15.23;7.15;;;;;;;11.19;81.04;102389.56;5097677;28;20038;-71
2022/05/07 01:27:38;;;;;;;20.55;6.93;;;;;;;11.21;82.09;102393.84;5115529;28;20023;-71
2022/05/07 01:30:04;;;;;;;17.80;7.00;;;;;;;11.22;82.00;102395.53;5115780;28;20024;-72
2022/05/07 01:32:29;;;;;;;22.88;8.02;;;;;;;11.20;82.18;102384.13;5115656;28;20035;-71
2022/05/07 01:34:55;;;;;;;23.85;7.18;;;;;;;11.20;82.35;102380.63;5115684;28;20417;-71
2022/05/07 01:37:21;;;;;;;15.80;8.00;;;;;;;11.18;83.25;102371.88;5115717;28;20032;-72
2022/05/07 01:39:46;;;;;;;21.80;7.07;;;;;;;11.18;83.06;102374.53;5115604;28;20042;-71
2022/05/07 01:42:12;;;;;;;18.02;7.70;;;;;;;11.18;83.20;102369.19;5115234;28;20038;-71
2022/05/07 01:44:38;;;;;;;20.80;7.88;;;;;;;11.18;83.50;102374.53;5115370;28;20471;-71
2022/05/07 01:49:47;;;;;;;16.88;8.23;;;;;;;11.12;83.92;102367.81;5115687;28;20047;-71
2022/05/07 01:52:14;;;;;;;22.50;8.52;;;;;;;11.10;83.96;102367.91;5115570;28;20371;-72
2022/05/07 01:54:39;;;;;;;20.45;7.47;;;;;;;11.08;84.12;102371.66;5115779;28;20031;-71
2022/05/07 01:57:05;;;;;;;22.05;7.90;;;;;;;11.06;84.47;102365.56;5080829;28;20032;-71
2022/05/07 01:59:31;;;;;;;19.83;8.02;;;;;;;11.07;85.46;102368.13;5115245;28;20475;-72
2022/05/07 02:01:56;;;;;;;22.33;8.55;;;;;;;11.06;85.99;102366.44;5115383;28;20062;-71
2022/05/07 02:04:22;;;;;;;21.75;8.20;;;;;;;11.04;85.98;102367.50;5114944;28;20031;-72
2022/05/07 02:06:47;;;;;;;20.20;8.10;;;;;;;11.02;86.04;102366.75;5115052;28;20034;-71
2022/05/07 02:09:12;;;;;;;23.08;8.55;;;;;;;11.02;86.24;102372.09;5096703;28;20053;-71
2022/05/07 02:11:38;;;;;;;26.65;9.00;;;;;;;11.01;86.29;102373.03;5114825;28;20036;-72
2022/05/07 02:14:04;;;;;;;27.10;8.95;;;;;;;11.01;86.18;102378.34;5096690;28;20058;-72
2022/05/07 02:16:29;;;;;;;33.53;9.85;;;;;;;11.02;86.78;102372.94;5114668;28;20036;-72
2022/05/07 02:18:54;;;;;;;26.50;9.63;;;;;;;11.04;86.83;102368.34;5114773;28;20035;-72
2022/05/07 02:21:20;;;;;;;23.63;9.32;;;;;;;11.05;86.89;102372.72;5114690;28;20035;-72
2022/05/07 02:23:46;;;;;;;21.63;8.98;;;;;;;11.04;87.27;102370.16;5096384;28;20036;-71
2022/05/07 02:26:11;;;;;;;22.52;9.13;;;;;;;11.03;87.67;102361.31;5114754;28;20096;-72
2022/05/07 02:28:37;;;;;;;25.83;8.85;;;;;;;11.03;87.24;102373.78;5114488;28;20127;-72
2022/05/07 02:31:02;;;;;;;18.67;9.15;;;;;;;11.01;87.32;102373.88;5095579;28;20035;-72
2022/05/07 02:33:28;;;;;;;23.52;9.32;;;;;;;11.00;87.57;102380.19;5096292;28;20460;-72
2022/05/07 02:35:53;;;;;;;20.80;9.45;;;;;;;10.99;87.50;102374.94;5111475;28;20047;-72
2022/05/07 02:38:18;;;;;;;26.67;8.80;;;;;;;11.00;88.22;102379.31;5113763;28;20027;-71
2022/05/07 02:43:27;;;;;;;22.05;8.93;;;;;;;11.04;88.54;102372.81;5114818;28;20080;-72
2022/05/07 02:45:53;;;;;;;22.77;9.52;;;;;;;11.07;88.41;102377.94;5114856;28;20031;-71
2022/05/07 02:48:18;;;;;;;28.88;11.32;;;;;;;11.11;88.56;102379.44;5114183;28;20076;-71
2022/05/07 02:50:43;;;;;;;30.23;11.82;;;;;;;11.13;88.87;102379.34;5113232;28;20092;-71
2022/05/07 02:53:09;;;;;;;24.88;11.35;;;;;;;11.17;88.96;102391.50;5114087;28;20410;-71
2022/05/07 02:55:34;;;;;;;35.95;11.13;;;;;;;11.20;88.82;102389.47;5114086;28;20039;-71
2022/05/07 02:58:01;;;;;;;28.67;10.98;;;;;;;11.20;88.97;102386.78;5114325;27;20378;-71
2022/05/07 03:00:26;;;;;;;25.63;11.30;;;;;;;11.21;89.07;102391.19;5113868;28;20475;-72
2022/05/07 03:02:51;;;;;;;25.70;11.18;;;;;;;11.20;88.93;102384.13;5113751;28;20038;-71
2022/05/07 03:05:17;;;;;;;40.47;12.63;;;;;;;11.21;88.69;102380.53;5112836;28;20463;-71
2022/05/07 03:07:42;;;;;;;28.10;12.32;;;;;;;11.22;88.88;102376.88;5113964;28;20487;-71
2022/05/07 03:10:07;;;;;;;27.40;12.00;;;;;;;11.23;89.02;102377.75;5113814;28;20031;-71
2022/05/07 03:12:33;;;;;;;35.10;11.90;;;;;;;11.24;89.38;102372.31;5114088;28;20032;-71
2022/05/07 03:14:59;;;;;;;30.92;12.98;;;;;;;11.26;89.27;102381.03;5114031;28;20054;-71
2022/05/07 03:17:26;;;;;;;34.45;12.63;;;;;;;11.27;89.24;102384.53;5112643;28;20082;-71
2022/05/07 03:19:52;;;;;;;30.35;12.40;;;;;;;11.27;89.08;102374.75;5095729;28;20036;-71
2022/05/07 03:22:17;;;;;;;30.25;13.13;;;;;;;11.27;89.18;102376.56;5114069;28;20111;-71
2022/05/07 03:24:42;;;;;;;29.60;13.10;;;;;;;11.25;89.35;102373.16;5113778;28;20039;-71
2022/05/07 03:27:08;;;;;;;35.88;13.45;;;;;;;11.22;89.85;102376.88;5112556;28;20031;-71
2022/05/07 03:29:34;;;;;;;37.53;14.30;;;;;;;11.22;90.17;102381.34;5114237;28;20024;-71
2022/05/07 03:31:59;;;;;;;36.70;13.88;;;;;;;11.20;90.34;102381.47;5113766;28;20467;-71
2022/05/07 03:34:24;;;;;;;37.83;13.48;;;;;;;11.20;90.33;102388.63;5113544;28;20047;-70
2022/05/07 03:36:50;;;;;;;30.60;13.07;;;;;;;11.20;90.37;102389.47;5113756;28;20448;-71
2022/05/07 03:39:16;;;;;;;34.55;12.98;;;;;;;11.21;90.47;102384.97;5113765;28;20054;-71
2022/05/07 03:41:41;;;;;;;33.50;13.77;;;;;;;11.22;90.77;102384.88;5113518;28;20467;-71
2022/05/07 03:44:07;;;;;;;30.35;13.13;;;;;;;11.22;90.66;102384.88;5117737;28;20039;-71
2022/05/07 03:46:33;;;;;;;35.83;12.45;;;;;;;11.23;90.77;102388.41;5117918;28;20067;-71
2022/05/07 03:48:58;;;;;;;31.70;13.57;;;;;;;11.24;90.86;102390.09;5117838;28;20023;-71
2022/05/07 03:51:23;;;;;;;27.42;13.25;;;;;;;11.25;90.89;102399.81;5118148;28;20099;-71
2022/05/07 03:53:49;;;;;;;37.80;14.90;;;;;;;11.27;91.09;102404.06;5117464;28;20040;-71
2022/05/07 03:56:15;;;;;;;35.47;15.13;;;;;;;11.27;91.01;102405.88;5100017;28;20341;-71
2022/05/07 03:58:41;;;;;;;39.50;15.02;;;;;;;11.28;91.04;102397.75;5117678;28;20035;-71
2022/05/07 04:01:08;;;;;;;44.92;14.82;;;;;;;11.27;91.12;102398.75;5100040;28;20040;-71
2022/05/07 04:03:33;;;;;;;29.90;13.60;;;;;;;11.29;91.16;102401.31;5099429;28;20032;-70
2022/05/07 04:05:59;;;;;;;40.28;15.25;;;;;;;11.25;91.51;102397.13;5117330;28;20027;-71
2022/05/07 04:08:24;;;;;;;38.20;14.60;;;;;;;11.24;91.37;102395.41;5099249;28;20447;-70
2022/05/07 04:10:51;;;;;;;31.75;14.63;;;;;;;11.24;91.43;102408.75;5117809;28;20031;-70
2022/05/07 04:13:16;;;;;;;36.08;14.77;;;;;;;11.20;91.72;102412.59;5117856;28;20036;-71
2022/05/07 04:15:43;;;;;;;32.78;16.20;;;;;;;11.17;92.07;102418.13;5117170;28;20379;-70
2022/05/07 04:18:09;;;;;;;34.55;15.50;;;;;;;11.17;92.01;102416.31;5116987;28;20035;-70
2022/05/07 04:20:36;;;;;;;36.80;15.15;;;;;;;11.19;92.64;102416.22;5116838;28;20111;-71
2022/05/07 04:23:02;;;;;;;38.83;16.50;;;;;;;11.20;92.69;102423.25;5117407;28;20093;-70
2022/05/07 04:25:28;;;;;;;43.75;17.02;;;;;;;11.21;92.61;102414.28;5116976;28;20051;-70
2022/05/07 04:27:53;;;;;;;40.05;17.30;;;;;;;11.22;92.51;102411.50;5082126;28;20383;-71
2022/05/07 04:30:20;;;;;;;41.83;17.08;;;;;;;11.23;92.50;102415.06;5116928;28;20478;-70
2022/05/07 04:32:45;;;;;;;33.90;15.07;;;;;;;11.24;92.49;102420.28;5117497;28;20149;-71
2022/05/07 04:35:10;;;;;;;42.10;16.27;;;;;;;11.28;92.22;102421.75;5117145;28;20123;-70
2022/05/07 04:37:36;;;;;;;35.92;16.60;;;;;;;11.31;92.03;102417.19;5116805;28;20468;-70
2022/05/07 04:40:02;;;;;;;38.70;16.45;;;;;;;11.34;92.26;102419.63;5117298;28;20028;-71
2022/05/07 04:42:28;;;;;;;34.55;15.68;;;;;;;11.35;92.40;102421.34;5116866;28;20032;-70
2022/05/07 04:44:53;;;;;;;36.28;16.65;;;;;;;11.36;92.39;102417.69;5098491;28;20110;-70
2022/05/07 04:47:18;;;;;;;33.90;15.95;;;;;;;11.37;92.40;102414.09;5117347;28;20031;-71
2022/05/07 04:49:44;;;;;;;34.80;17.15;;;;;;;11.39;92.31;102417.50;5117058;28;20456;-70
2022/05/07 04:52:10;;;;;;;33.53;14.82;;;;;;;11.42;91.93;102414.59;5116389;28;20036;-70
2022/05/07 04:54:35;;;;;;;29.00;15.52;;;;;;;11.46;91.83;102416.13;5115930;28;20043;-70
2022/05/07 04:57:01;;;;;;;34.17;16.23;;;;;;;11.46;91.79;102421.44;5116254;28;20110;-71
2022/05/07 04:59:26;;;;;;;30.02;15.35;;;;;;;11.47;91.90;102417.81;5116134;28;20092;-70
2022/05/07 05:01:52;;;;;;;34.45;15.32;;;;;;;11.46;91.86;102418.78;5116228;28;20456;-70
2022/05/07 05:04:18;;;;;;;33.20;15.30;;;;;;;11.49;91.67;102413.22;5116131;28;20031;-70
2022/05/07 05:06:43;;;;;;;34.05;16.00;;;;;;;11.51;91.91;102416.66;5115853;28;20056;-70
2022/05/07 05:09:09;;;;;;;30.45;15.52;;;;;;;11.55;91.94;102427.94;5116136;28;20467;-70
2022/05/07 05:11:35;;;;;;;35.33;16.20;;;;;;;11.59;91.64;102427.63;5116803;28;20103;-70
2022/05/07 05:14:01;;;;;;;31.90;14.07;;;;;;;11.68;91.27;102438.63;5098554;28;20070;-70
2022/05/07 05:16:26;;;;;;;34.40;15.88;;;;;;;11.77;91.23;102436.16;5115897;28;20030;-70
2022/05/07 05:18:52;;;;;;;32.20;14.05;;;;;;;11.87;90.99;102441.69;5115626;28;20040;-70
2022/05/07 05:21:17;;;;;;;33.17;15.57;;;;;;;11.94;90.44;102458.13;5115648;28;20404;-69
2022/05/07 05:23:46;;;;;;;31.08;13.98;;;;;;;12.01;89.97;102455.91;5115813;28;20031;-71
2022/05/07 05:26:14;;;;;;;28.63;15.10;;;;;;;12.06;89.96;102465.28;5098144;28;20027;-71
2022/05/07 05:28:40;;;;;;;31.23;14.95;;;;;;;12.13;89.53;102460.38;5115887;28;20537;-71
2022/05/07 05:31:06;;;;;;;29.05;15.18;;;;;;;12.16;89.79;102458.31;5115737;28;20058;-69
2022/05/07 05:33:31;;;;;;;32.33;15.05;;;;;;;12.21;89.25;102457.13;5115572;28;20027;-70
2022/05/07 05:35:57;;;;;;;28.42;14.45;;;;;;;12.22;89.52;102458.84;5115893;28;20353;-70
2022/05/07 05:38:22;;;;;;;28.80;13.82;;;;;;;12.21;89.74;102454.47;5115426;28;20547;-69
2022/05/07 05:40:48;;;;;;;34.45;14.98;;;;;;;12.25;89.72;102459.47;5115699;28;20028;-70
2022/05/07 05:43:13;;;;;;;30.15;15.32;;;;;;;12.28;89.61;102455.75;5116131;28;20449;-71
2022/05/07 05:45:38;;;;;;;26.63;13.80;;;;;;;12.33;89.97;102459.78;5115506;28;20032;-70
2022/05/07 05:48:04;;;;;;;29.17;15.55;;;;;;;12.41;89.59;102459.22;5115399;28;20075;-70
2022/05/07 05:50:30;;;;;;;34.58;14.30;;;;;;;12.49;88.93;102459.50;5097404;28;20036;-70
2022/05/07 05:52:56;;;;;;;26.73;14.93;;;;;;;12.55;89.13;102452.88;5115898;28;20034;-70
2022/05/07 05:55:22;;;;;;;32.15;14.05;;;;;;;12.63;89.25;102455.84;5115533;28;20035;-70
2022/05/07 05:57:48;;;;;;;30.60;14.20;;;;;;;12.66;86.87;102460.13;5115209;28;20028;-71
2022/05/07 06:00:14;;;;;;;26.65;14.00;;;;;;;12.74;86.79;102464.88;5097023;28;20055;-70
2022/05/07 06:02:43;;;;;;;29.17;13.50;;;;;;;12.81;85.84;102466.97;5115246;28;20472;-71
2022/05/07 06:05:09;;;;;;;29.38;14.00;;;;;;;12.89;85.96;102469.06;5114191;28;20032;-71
2022/05/07 06:07:34;;;;;;;31.27;14.93;;;;;;;13.01;85.81;102464.63;5114899;28;20141;-70
2022/05/07 06:09:59;;;;;;;24.17;12.85;;;;;;;13.11;85.71;102465.66;5096786;28;20602;-70
2022/05/07 06:12:25;;;;;;;30.60;14.63;;;;;;;13.22;85.26;102472.84;5096554;28;20035;-70
2022/05/07 06:14:54;;;;;;;30.20;14.90;;;;;;;13.26;84.33;102466.28;5114698;28;20032;-71
2022/05/07 06:17:19;;;;;;;29.48;14.55;;;;;;;13.29;84.09;102471.41;5114866;28;20085;-71
2022/05/07 06:19:45;;;;;;;29.83;14.90;;;;;;;13.40;85.06;102475.97;5114600;28;20063;-70
2022/05/07 06:22:10;;;;;;;26.55;13.73;;;;;;;13.52;84.29;102474.16;5114989;28;20059;-71
2022/05/07 06:27:28;;;;;;;30.23;14.10;;;;;;;13.73;81.72;102471.63;5115028;28;20043;-71
2022/05/07 06:30:04;;;;;;;29.33;13.77;;;;;;;13.78;81.84;102476.63;5114609;28;20081;-71
2022/05/07 06:32:34;;;;;;;18.55;11.90;;;;;;;13.82;80.40;102478.94;5115297;28;20030;-71
2022/05/07 06:35:04;;;;;;;28.65;13.30;;;;;;;13.84;81.62;102481.50;5099563;28;20071;-70
2022/05/07 06:37:30;;;;;;;27.92;13.68;;;;;;;13.87;81.47;102474.09;5114224;28;20036;-71
2022/05/07 06:39:56;;;;;;;25.10;13.07;;;;;;;13.98;81.28;102475.91;5114295;28;20027;-72
2022/05/07 06:42:22;;;;;;;29.15;12.45;;;;;;;14.10;81.14;102474.94;5114159;28;20111;-72
2022/05/07 06:44:47;;;;;;;24.15;12.38;;;;;;;14.32;79.78;102478.56;5114458;28;20114;-71
2022/05/07 06:47:13;;;;;;;19.55;11.05;;;;;;;14.62;77.37;102488.66;5113584;28;20028;-69
2022/05/07 06:49:38;;;;;;;26.08;12.40;;;;;;;14.91;76.08;102479.19;5114248;28;20042;-69
2022/05/07 06:52:04;;;;;;;24.08;12.32;;;;;;;15.16;75.09;102486.88;5114683;28;20031;-69
2022/05/07 06:54:29;;;;;;;23.73;12.20;;;;;;;15.42;74.67;102489.19;5114191;28;20027;-70
2022/05/07 06:56:55;;;;;;;25.48;12.85;;;;;;;15.60;73.45;102496.63;5114271;28;20110;-71
2022/05/07 06:59:21;;;;;;;18.00;10.93;;;;;;;15.75;73.91;102491.75;5113780;28;20092;-70
2022/05/07 07:01:47;;;;;;;27.80;12.70;;;;;;;15.79;72.44;102495.91;5112748;28;20034;-69
2022/05/07 07:04:12;;;;;;;22.17;12.15;;;;;;;15.72;71.81;102490.22;5112708;28;20103;-70
2022/05/07 07:06:37;;;;;;;25.65;13.65;;;;;;;15.61;72.11;102499.16;5114029;28;20507;-69
2022/05/07 07:09:03;;;;;;;20.45;11.90;;;;;;;15.46;73.51;102495.97;5113953;28;20028;-69
2022/05/07 07:11:29;;;;;;;26.10;12.75;;;;;;;15.40;73.72;102499.19;5114835;28;20372;-70
2022/05/07 07:13:55;;;;;;;22.77;11.30;;;;;;;15.40;73.49;102501.03;5113647;28;20487;-69
2022/05/07 07:16:20;;;;;;;26.20;11.20;;;;;;;15.46;73.18;102492.44;5112450;28;20071;-69
2022/05/07 07:18:45;;;;;;;25.23;11.63;;;;;;;15.67;72.86;102493.31;5113687;28;20059;-69
2022/05/07 07:21:12;;;;;;;20.10;10.80;;;;;;;15.84;71.75;102499.91;5113774;28;20043;-69
2022/05/07 07:23:37;;;;;;;20.17;11.77;;;;;;;15.92;71.90;102501.91;5113910;28;20035;-69
2022/05/07 07:26:03;;;;;;;25.23;10.82;;;;;;;16.12;72.99;102500.19;5113774;28;20035;-69
2022/05/07 07:28:28;;;;;;;19.77;10.57;;;;;;;16.31;70.15;102498.53;5114145;28;20032;-69
2022/05/07 07:30:54;;;;;;;19.30;10.60;;;;;;;16.51;69.66;102499.44;5113690;28;20039;-70
2022/05/07 07:33:19;;;;;;;23.15;10.70;;;;;;;16.66;68.38;102505.25;5112376;28;20123;-70
2022/05/07 07:35:44;;;;;;;20.73;10.60;;;;;;;16.85;68.58;102504.44;5113746;28;20044;-70
2022/05/07 07:38:11;;;;;;;27.58;11.68;;;;;;;16.96;68.54;102507.06;5114109;28;20104;-70
2022/05/07 07:40:37;;;;;;;19.85;11.27;;;;;;;17.15;67.55;102510.72;5113660;28;20046;-70
2022/05/07 07:43:02;;;;;;;23.58;11.90;;;;;;;17.18;67.37;102514.00;5095601;28;20115;-70
2022/05/07 07:48:14;;;;;;;23.83;11.32;;;;;;;17.01;66.50;102510.16;5114097;28;20486;-70
2022/05/07 07:50:39;;;;;;;18.25;10.88;;;;;;;17.02;66.60;102519.94;5113258;28;20032;-71
2022/05/07 07:53:10;;;;;;;19.35;10.82;;;;;;;17.02;66.53;102514.56;5113494;28;20100;-71
2022/05/07 07:55:36;;;;;;;18.13;11.32;;;;;;;17.09;64.96;102517.50;5114096;28;20067;-70
2022/05/07 07:58:07;;;;;;;19.95;10.70;;;;;;;17.22;64.93;102518.06;5113476;28;20032;-70
2022/05/07 08:00:35;;;;;;;17.63;11.13;;;;;;;17.28;64.34;102522.03;5095576;28;20032;-71
2022/05/07 08:03:03;;;;;;;21.73;11.18;;;;;;;17.30;64.41;102522.75;5113430;28;20027;-71
2022/05/07 08:05:34;;;;;;;20.77;11.18;;;;;;;17.28;64.71;102522.88;5113519;28;20460;-70
2022/05/07 08:13:38;;;;;;;17.42;10.85;;;;;;;17.74;62.53;102520.41;5113821;28;20117;-70
2022/05/07 08:16:04;;;;;;;21.58;12.25;;;;;;;17.91;62.50;102512.59;5113032;28;20059;-71
2022/05/07 08:18:30;;;;;;;24.08;11.80;;;;;;;18.20;60.82;102517.88;5113040;28;20570;-70
2022/05/07 08:20:56;;;;;;;21.95;11.35;;;;;;;18.61;58.58;102522.91;5112940;28;20074;-70
2022/05/07 08:23:22;;;;;;;20.52;11.50;;;;;;;18.90;58.31;102524.59;5113287;28;20051;-71
2022/05/07 08:25:48;;;;;;;20.92;10.85;;;;;;;19.18;56.80;102523.53;5112964;28;20075;-71
2022/05/07 08:28:15;;;;;;;22.90;12.15;;;;;;;19.38;56.01;102529.56;5114052;28;20077;-71
2022/05/07 08:30:41;;;;;;;20.77;11.02;;;;;;;19.60;54.47;102527.41;5116717;28;20069;-71
2022/05/07 08:33:06;;;;;;;19.98;11.07;;;;;;;19.73;54.94;102527.81;5099245;28;20076;-72
2022/05/07 08:35:31;;;;;;;21.20;12.18;;;;;;;19.97;54.23;102528.16;5117204;28;20044;-72
2022/05/07 08:37:57;;;;;;;20.52;11.75;;;;;;;20.41;52.60;102523.44;5098752;28;20483;-71
2022/05/07 08:40:24;;;;;;;22.20;11.38;;;;;;;20.64;51.00;102527.41;5098326;28;20024;-72
2022/05/07 08:42:50;;;;;;;19.10;11.30;;;;;;;20.75;51.35;102519.88;5098733;28;20035;-70
2022/05/07 08:45:16;;;;;;;20.90;11.00;;;;;;;20.85;50.36;102525.09;5116815;28;20040;-73
2022/05/07 08:47:42;;;;;;;17.00;10.75;;;;;;;20.95;51.01;102528.50;5117459;28;20046;-73
2022/05/07 08:50:10;;;;;;;22.00;11.32;;;;;;;21.08;49.55;102532.59;5116556;28;20149;-72
2022/05/07 08:52:41;;;;;;;22.98;12.05;;;;;;;21.17;49.37;102536.13;5116898;28;20024;-72
2022/05/07 08:55:09;;;;;;;21.65;12.75;;;;;;;21.27;50.60;102539.53;5116785;28;20023;-72
2022/05/07 08:57:35;;;;;;;23.35;12.48;;;;;;;21.65;48.57;102537.19;5116269;28;20027;-72
2022/05/07 09:00:00;;;;;;;20.02;11.63;;;;;;;22.02;47.33;102546.59;5098462;28;20480;-72
2022/05/07 09:02:26;;;;;;;22.08;11.93;;;;;;;22.41;47.36;102547.63;5115965;28;20035;-70
2022/05/07 09:04:56;;;;;;;18.88;11.20;;;;;;;23.21;44.52;102546.50;5116357;28;20043;-71
2022/05/07 09:07:22;;;;;;;20.35;12.23;;;;;;;23.60;43.48;102545.47;5097989;28;20523;-71
2022/05/07 09:09:48;;;;;;;25.60;13.35;;;;;;;24.13;41.31;102547.34;5116005;28;20170;-72
2022/05/07 09:12:28;;;;;;;19.15;11.38;;;;;;;24.96;39.43;102551.50;5116220;28;20084;-71
2022/05/07 09:14:59;;;;;;;22.35;11.23;;;;;;;25.50;38.37;102555.56;5116639;28;20028;-70
2022/05/07 09:17:25;;;;;;;19.02;11.15;;;;;;;25.81;36.93;102553.47;5116151;28;20064;-72
2022/05/07 09:19:50;;;;;;;18.75;11.05;;;;;;;26.28;36.41;102557.31;5116110;28;20062;-70
2022/05/07 09:22:15;;;;;;;21.40;11.40;;;;;;;26.86;35.25;102554.19;5115916;28;20024;-70
2022/05/07 09:24:55;;;;;;;19.15;11.95;;;;;;;27.09;35.21;102551.06;5098334;28;20456;-70
2022/05/07 09:27:25;;;;;;;20.53;12.57;;;;;;;26.93;35.53;102551.47;5116725;28;20100;-71
2022/05/07 09:30:03;;;;;;;24.70;12.80;;;;;;;26.48;36.20;102559.28;5115962;28;20072;-69
2022/05/07 09:32:36;;;;;;;23.55;12.13;;;;;;;25.85;36.49;102550.13;5115889;28;20027;-70
2022/05/07 09:38:10;;;;;;;22.52;13.40;;;;;;;25.34;38.15;102553.13;5070280;28;20047;-69
2022/05/07 09:40:39;;;;;;;23.23;12.20;;;;;;;26.00;37.46;102555.50;5115534;28;20038;-70
2022/05/07 09:43:07;;;;;;;20.08;12.07;;;;;;;26.62;35.70;102550.13;5115679;28;20049;-70
2022/05/07 09:45:34;;;;;;;18.65;11.25;;;;;;;27.61;33.61;102547.75;5115520;28;20085;-73
2022/05/07 09:48:00;;;;;;;20.02;11.48;;;;;;;28.04;32.48;102563.69;5115568;28;20023;-71
2022/05/07 09:58:49;;;;;;;20.50;12.40;;;;;;;27.26;33.73;102554.25;5115695;28;20062;-71
2022/05/07 10:01:43;;;;;;;25.58;13.70;;;;;;;26.69;35.66;102558.34;5115545;28;20030;-71
2022/05/07 10:04:50;;;;;;;21.30;12.35;;;;;;;26.70;35.72;102565.50;5115351;28;20051;-71
2022/05/07 10:07:29;;;;;;;17.40;11.40;;;;;;;27.03;34.89;102562.00;5024870;28;20045;-71
2022/05/07 10:10:13;;;;;;;15.77;11.02;;;;;;;26.70;34.68;102563.59;5115721;28;20028;-70
2022/05/07 10:12:43;;;;;;;18.17;11.40;;;;;;;25.65;36.94;102577.25;5115378;28;20027;-71
2022/05/07 10:15:12;;;;;;;18.92;12.35;;;;;;;25.13;37.33;102573.00;5115383;28;20028;-70
2022/05/07 10:17:38;;;;;;;20.52;11.90;;;;;;;24.12;39.59;102570.94;5114999;28;20028;-70
2022/05/07 10:20:09;;;;;;;24.70;13.30;;;;;;;23.07;41.92;102575.25;5097432;28;20032;-70
2022/05/07 10:22:36;;;;;;;20.75;13.13;;;;;;;22.40;44.24;102575.78;5115090;28;20027;-70
2022/05/07 10:25:05;;;;;;;20.33;13.30;;;;;;;23.52;41.98;102570.84;5114896;28;20051;-71
2022/05/07 10:27:35;;;;;;;18.95;13.05;;;;;;;24.44;38.56;102568.88;5114419;28;20031;-70
2022/05/07 10:30:09;;;;;;;23.05;13.73;;;;;;;25.43;37.61;102568.28;5096204;28;20042;-69
2022/05/07 10:32:53;;;;;;;18.92;11.98;;;;;;;26.69;35.32;102572.00;5114633;28;20523;-70
2022/05/07 10:35:40;;;;;;;22.58;12.25;;;;;;;26.87;34.84;102574.13;5114796;28;20035;-71
2022/05/07 10:38:27;;;;;;;21.77;13.98;;;;;;;27.34;34.13;102572.34;5096254;28;20043;-70
2022/05/07 10:40:58;;;;;;;21.63;12.48;;;;;;;27.24;33.70;102572.72;5114508;28;20028;-70
2022/05/07 10:43:38;;;;;;;21.13;12.15;;;;;;;27.28;33.62;102571.25;5114468;28;20038;-70
2022/05/07 10:46:03;;;;;;;21.27;14.60;;;;;;;27.05;34.65;102568.94;5114517;28;20043;-71
2022/05/07 10:48:29;;;;;;;24.20;16.48;;;;;;;26.81;34.53;102581.28;5114399;28;20031;-70
2022/05/07 10:50:59;;;;;;;20.10;12.38;;;;;;;26.47;35.13;102582.16;5113939;28;20059;-70
2022/05/07 10:53:37;;;;;;;16.60;11.43;;;;;;;26.48;35.28;102568.31;5095875;28;20364;-72
2022/05/07 10:56:03;;;;;;;20.75;11.68;;;;;;;26.87;34.68;102572.28;5113963;28;20026;-72
2022/05/07 10:58:29;;;;;;;19.00;12.15;;;;;;;26.43;34.97;102578.19;5078873;28;20027;-72
2022/05/07 11:01:02;;;;;;;21.35;13.00;;;;;;;26.66;35.53;102580.56;5114126;28;20027;-72
2022/05/07 11:03:28;;;;;;;30.55;18.55;;;;;;;27.08;34.67;102571.25;5096346;28;20032;-72
2022/05/07 11:06:02;;;;;;;16.20;9.05;;;;;;;26.99;33.85;102577.09;5114162;28;20031;-72
2022/05/07 11:08:30;;;;;;;22.17;11.60;;;;;;;27.15;33.78;102565.78;5096778;28;20055;-72
2022/05/07 11:11:07;;;;;;;15.65;9.30;;;;;;;27.43;33.46;102573.00;5113839;28;20076;-71
2022/05/07 11:13:38;;;;;;;26.52;13.82;;;;;;;27.13;34.63;102569.78;5114158;28;20472;-71
2022/05/07 11:16:04;;;;;;;;;;;;;;;26.77;35.43;102574.56;5080455;28;20104;-72
2022/05/07 11:18:34;;;;;;;20.98;12.63;;;;;;;27.08;35.08;102564.94;5114223;28;19911;-71
2022/05/07 11:21:03;;;;;;;18.45;11.52;;;;;;;27.03;34.70;102576.47;5114624;28;20035;-72
2022/05/07 11:23:31;;;;;;;21.42;13.07;;;;;;;26.97;35.16;102576.50;5113829;28;20392;-71
2022/05/07 11:25:56;;;;;;;20.13;12.32;;;;;;;26.92;35.23;102579.84;5113752;28;20031;-71
2022/05/07 11:28:22;;;;;;;20.30;12.90;;;;;;;26.71;35.84;102573.47;5113643;28;20042;-72
2022/05/07 11:30:53;;;;;;;15.98;10.32;;;;;;;26.78;34.59;102568.03;5113917;28;20473;-71
2022/05/07 11:33:25;;;;;;;14.52;8.88;;;;;;;26.66;34.40;102577.84;5114370;28;20114;-71
2022/05/07 11:36:06;;;;;;;17.50;11.27;;;;;;;27.03;34.38;102568.28;5113413;28;20063;-71
2022/05/07 11:38:35;;;;;;;19.63;10.77;;;;;;;26.74;35.63;102575.78;5113691;28;20036;-71
2022/05/07 11:41:11;;;;;;;16.52;10.02;;;;;;;27.27;34.27;102566.88;5114023;28;20030;-72
2022/05/07 11:46:20;;;;;;;16.10;9.75;;;;;;;27.57;33.50;102571.94;5114035;28;20063;-71
2022/05/07 11:48:45;;;;;;;19.10;10.43;;;;;;;27.17;34.87;102571.91;5114129;28;20035;-71